General Francisco Javier Mina International Airport


Codes: MMTM/TAM
Name: General Francisco Javier Mina International Airport
City: Tampico
Country: Mexico
Elevation: 80 ft.
Wikipedia:

Photos at General Francisco Javier Mina International Airport


   Photos courtesy of SpottingLog. You can add your own sightings and photos by signing up for a free trial today.



No photos found.

Weather at General Francisco Javier Mina International Airport


Time (UTC)DescriptionTempratureWindCloud coverageVisibilityPressureHumidity
25-Jun-2024 15:00Scattered Clouds26°C2 mph, SW50%10000m1012hPa86%
25-Jun-2024 18:00Scattered Clouds29°C7 mph, E32%10000m1012hPa73%
25-Jun-2024 21:00Broken Clouds30°C11 mph, E53%10000m1011hPa65%
26-Jun-2024 00:00Scattered Clouds29°C9 mph, E29%10000m1010hPa70%
26-Jun-2024 03:00Clear Sky28°C9 mph, E4%10000m1012hPa80%
26-Jun-2024 06:00Light Rain27°C7 mph, SE4%10000m1012hPa83%
26-Jun-2024 09:00Light Rain26°C2 mph, S1%10000m1011hPa86%
26-Jun-2024 12:00Light Rain25°C4 mph, W13%10000m1011hPa89%
26-Jun-2024 15:00Scattered Clouds28°C2 mph, S49%10000m1012hPa75%
26-Jun-2024 18:00Scattered Clouds30°C7 mph, SE36%10000m1011hPa65%
26-Jun-2024 21:00Scattered Clouds30°C11 mph, E46%10000m1009hPa65%
27-Jun-2024 00:00Scattered Clouds29°C11 mph, E30%10000m1009hPa70%
27-Jun-2024 03:00Clear Sky28°C7 mph, SE9%10000m1010hPa82%
27-Jun-2024 06:00Light Rain27°C4 mph, SE6%10000m1010hPa83%
27-Jun-2024 09:00Light Rain26°C2 mph, S1%10000m1008hPa85%
27-Jun-2024 12:00Light Rain26°C2 mph, SW7%10000m1009hPa87%
27-Jun-2024 15:00Light Rain29°C2 mph, E42%10000m1010hPa73%
27-Jun-2024 18:00Light Rain31°C9 mph, SE31%10000m1009hPa64%
27-Jun-2024 21:00Scattered Clouds31°C11 mph, E33%10000m1007hPa64%
28-Jun-2024 00:00Few Clouds29°C11 mph, E16%10000m1007hPa73%
28-Jun-2024 03:00Light Rain28°C11 mph, SE9%10000m1008hPa83%
28-Jun-2024 06:00Moderate Rain27°C11 mph, SE15%10000m1008hPa88%
28-Jun-2024 09:00Moderate Rain27°C9 mph, SE100%10000m1006hPa89%
28-Jun-2024 12:00Moderate Rain26°C7 mph, SE100%10000m1008hPa89%
28-Jun-2024 15:00Moderate Rain28°C7 mph, SE99%10000m1009hPa80%
28-Jun-2024 18:00Light Rain30°C13 mph, SE100%10000m1008hPa73%
28-Jun-2024 21:00Overcast Clouds31°C16 mph, SE100%10000m1006hPa70%
29-Jun-2024 00:00Broken Clouds29°C13 mph, SE72%10000m1006hPa79%
29-Jun-2024 03:00Few Clouds28°C13 mph, SE15%10000m1008hPa87%
29-Jun-2024 06:00Light Rain28°C13 mph, SE15%10000m1009hPa87%
29-Jun-2024 09:00Light Rain27°C9 mph, SE18%10000m1009hPa87%
29-Jun-2024 12:00Light Rain27°C9 mph, SE20%10000m1010hPa88%
29-Jun-2024 15:00Light Rain29°C7 mph, SE86%10000m1012hPa79%
29-Jun-2024 18:00Overcast Clouds31°C7 mph, SE93%10000m1012hPa66%
29-Jun-2024 21:00Overcast Clouds31°C11 mph, E100%10000m1011hPa64%
30-Jun-2024 00:00Overcast Clouds29°C13 mph, E98%10000m1011hPa78%
30-Jun-2024 03:00Light Rain28°C13 mph, E33%10000m1014hPa79%
30-Jun-2024 06:00Light Rain27°C13 mph, SE37%10000m1015hPa80%
30-Jun-2024 09:00Moderate Rain26°C9 mph, SE46%10000m1014hPa88%
30-Jun-2024 12:00Moderate Rain26°C7 mph, E72%10000m1015hPa86%